Time;durP1;ratioP1;P1;durP2;ratioP2;P2;SDS_P1;SDS_P2;PMS_P1;PMS_P2;Temp;Humidity;BMP_temperature;BMP_pressure;BME280_temperature;BME280_humidity;BME280_pressure;Samples;Min_cycle;Max_cycle;Signal;HPM_P1;HPM_P2
2022/06/01 00:01:24;;;;;;;;;;;26.40;37.70;;;;;;4160131;28;20073;-42
2022/06/01 00:03:28;;;;;;;;;;;26.00;37.80;;;;;;4158503;28;19932;-43
2022/06/01 00:05:30;;;;;;;;;;;25.50;38.00;;;;;;4172552;28;20242;-41
2022/06/01 00:07:31;;;;;;;;;;;25.10;38.30;;;;;;4165715;28;19963;-40
2022/06/01 00:09:33;;;;;;;;;;;24.80;38.60;;;;;;4164158;28;19927;-41
2022/06/01 00:11:34;;;;;;;;;;;24.50;39.10;;;;;;4172464;28;19923;-39
2022/06/01 00:13:36;;;;;;;;;;;24.20;39.50;;;;;;4164683;28;20006;-41
2022/06/01 00:15:38;;;;;;;;;;;24.00;39.80;;;;;;4166570;28;19924;-41
2022/06/01 00:17:40;;;;;;;;;;;23.70;40.00;;;;;;4170741;28;19927;-43
2022/06/01 00:19:41;;;;;;;;;;;23.50;40.30;;;;;;4167886;28;20500;-41
2022/06/01 00:24:03;;;;;;;;;;;23.20;41.00;;;;;;4163307;28;19928;-42
2022/06/01 00:26:04;;;;;;;;;;;23.00;40.80;;;;;;4165303;28;19982;-39
2022/06/01 00:28:06;;;;;;;;;;;22.90;41.00;;;;;;4176294;28;19946;-47
2022/06/01 00:30:08;;;;;;;;;;;22.70;41.30;;;;;;4165583;28;20491;-41
2022/06/01 00:32:11;;;;;;;;;;;22.60;41.20;;;;;;4162754;28;19924;-41
2022/06/01 00:34:13;;;;;;;;;;;22.40;41.60;;;;;;4170759;28;19932;-39
2022/06/01 00:36:14;;;;;;;;;;;22.30;41.60;;;;;;4167168;28;19928;-40
2022/06/01 00:38:16;;;;;;;;;;;22.20;41.90;;;;;;4151642;28;19930;-41
2022/06/01 00:40:19;;;;;;;;;;;22.00;41.80;;;;;;4167241;28;19993;-42
2022/06/01 00:42:23;;;;;;;;;;;21.90;42.20;;;;;;4172256;28;19934;-46
2022/06/01 00:44:24;;;;;;;;;;;21.80;41.70;;;;;;4164207;28;19928;-42
2022/06/01 00:46:26;;;;;;;;;;;21.70;42.30;;;;;;4165377;28;20039;-43
2022/06/01 00:48:28;;;;;;;;;;;21.60;42.50;;;;;;4173040;28;19924;-38
2022/06/01 00:50:37;;;;;;;;;;;21.50;42.70;;;;;;4165390;28;19970;-44
2022/06/01 00:52:45;;;;;;;;;;;21.40;42.90;;;;;;4164492;28;20478;-43
2022/06/01 00:54:47;;;;;;;;;;;21.30;43.20;;;;;;4149426;28;20406;-40
2022/06/01 00:56:53;;;;;;;;;;;21.10;43.40;;;;;;4167559;28;20196;-42
2022/06/01 00:58:56;;;;;;;;;;;21.10;43.60;;;;;;4173702;28;19924;-44
2022/06/01 01:00:58;;;;;;;;;;;21.00;43.30;;;;;;4165057;28;19978;-42
2022/06/01 01:03:01;;;;;;;;;;;20.90;43.60;;;;;;4183840;27;20188;-40
2022/06/01 01:05:03;;;;;;;;;;;20.90;43.60;;;;;;4171250;28;20004;-41
2022/06/01 01:07:06;;;;;;;;;;;20.80;43.60;;;;;;4170412;28;19935;-43
2022/06/01 01:09:09;;;;;;;;;;;20.70;43.60;;;;;;4162400;28;20055;-40
2022/06/01 01:11:11;;;;;;;;;;;20.60;43.60;;;;;;4164555;28;19923;-42
2022/06/01 01:13:14;;;;;;;;;;;20.60;43.60;;;;;;4172175;28;20018;-42
2022/06/01 01:15:16;;;;;;;;;;;20.50;43.80;;;;;;4163534;28;19980;-46
2022/06/01 01:17:17;;;;;;;;;;;20.40;43.90;;;;;;4162512;28;20637;-42
2022/06/01 01:19:39;;;;;;;;;;;20.30;44.20;;;;;;4171097;28;19946;-42
2022/06/01 01:22:07;;;;;;;;;;;20.30;44.20;;;;;;4163956;28;20376;-46
2022/06/01 01:24:13;;;;;;;;;;;20.20;44.30;;;;;;4163719;28;20387;-40
2022/06/01 01:26:15;;;;;;;;;;;20.10;44.10;;;;;;4161934;28;19928;-42
2022/06/01 01:28:16;;;;;;;;;;;20.10;44.30;;;;;;4162658;28;19923;-40
2022/06/01 01:30:24;;;;;;;;;;;20.00;44.20;;;;;;4171026;28;19923;-47
2022/06/01 01:32:25;;;;;;;;;;;19.90;44.40;;;;;;4164865;28;20660;-44
2022/06/01 01:34:28;;;;;;;;;;;19.90;44.60;;;;;;4162216;28;20688;-39
2022/06/01 01:36:34;;;;;;;;;;;19.80;44.40;;;;;;4161924;28;20445;-40
2022/06/01 01:38:40;;;;;;;;;;;19.80;44.70;;;;;;4169452;28;20075;-39
2022/06/01 01:40:41;;;;;;;;;;;19.70;44.70;;;;;;4168822;28;21159;-43
2022/06/01 01:42:44;;;;;;;;;;;19.60;44.30;;;;;;4164660;28;20377;-41
2022/06/01 01:45:07;;;;;;;;;;;19.60;44.70;;;;;;4159393;28;20423;-39
2022/06/01 01:47:09;;;;;;;;;;;19.50;44.70;;;;;;4151236;28;20192;-43
2022/06/01 01:49:10;;;;;;;;;;;19.50;45.20;;;;;;4161952;28;20341;-40
2022/06/01 01:51:12;;;;;;;;;;;19.40;45.30;;;;;;4169900;28;20468;-40
2022/06/01 01:53:13;;;;;;;;;;;19.40;45.40;;;;;;4162241;28;20771;-47
2022/06/01 01:55:20;;;;;;;;;;;19.40;45.60;;;;;;4158524;28;19928;-39
2022/06/01 01:57:39;;;;;;;;;;;19.30;45.50;;;;;;4166884;28;19984;-39
2022/06/01 01:59:50;;;;;;;;;;;19.20;45.60;;;;;;4162543;28;20021;-40
2022/06/01 02:01:54;;;;;;;;;;;19.20;45.60;;;;;;4163886;28;19934;-43
2022/06/01 02:03:59;;;;;;;;;;;19.20;45.90;;;;;;4167244;28;21402;-39
2022/06/01 02:06:12;;;;;;;;;;;19.10;46.00;;;;;;4167857;28;19951;-39
2022/06/01 02:08:22;;;;;;;;;;;19.10;45.70;;;;;;4152743;28;20412;-39
2022/06/01 02:12:44;;;;;;;;;;;19.90;45.00;;;;;;4169245;28;20587;-42
2022/06/01 02:14:56;;;;;;;;;;;20.50;43.70;;;;;;4162632;28;20613;-40
2022/06/01 02:17:03;;;;;;;;;;;21.00;43.50;;;;;;4164262;28;19940;-45
2022/06/01 02:19:06;;;;;;;;;;;21.50;42.10;;;;;;4178485;27;19935;-46
2022/06/01 02:21:09;;;;;;;;;;;21.90;41.50;;;;;;4146500;28;20437;-40
2022/06/01 02:23:13;;;;;;;;;;;22.20;41.10;;;;;;4168415;28;19935;-39
2022/06/01 02:25:15;;;;;;;;;;;22.60;40.50;;;;;;4165469;28;20163;-39
2022/06/01 02:27:17;;;;;;;;;;;23.00;40.10;;;;;;4162590;28;19935;-41
2022/06/01 02:29:20;;;;;;;;;;;23.30;39.70;;;;;;4163835;28;20023;-40
2022/06/01 02:31:22;;;;;;;;;;;23.50;39.20;;;;;;4167376;28;19954;-40
2022/06/01 02:33:24;;;;;;;;;;;23.80;39.00;;;;;;4159495;28;19927;-40
2022/06/01 02:35:27;;;;;;;;;;;24.10;38.70;;;;;;4158624;28;20310;-40
2022/06/01 02:37:29;;;;;;;;;;;24.30;38.40;;;;;;4168867;28;19950;-42
2022/06/01 02:39:32;;;;;;;;;;;24.50;38.20;;;;;;4158081;28;20131;-40
2022/06/01 02:43:54;;;;;;;;;;;24.80;37.80;;;;;;4161716;28;19923;-40
2022/06/01 02:45:56;;;;;;;;;;;24.60;38.20;;;;;;4160661;28;19928;-46
2022/06/01 02:48:02;;;;;;;;;;;24.20;38.60;;;;;;4169775;28;20390;-42
2022/06/01 02:50:04;;;;;;;;;;;23.80;39.00;;;;;;4185627;27;20410;-42
2022/06/01 02:52:05;;;;;;;;;;;23.40;39.30;;;;;;4163419;28;20529;-46
2022/06/01 02:54:08;;;;;;;;;;;23.20;39.80;;;;;;4166114;28;19990;-43
2022/06/01 02:56:11;;;;;;;;;;;22.90;40.00;;;;;;4170201;28;20347;-41
2022/06/01 02:58:13;;;;;;;;;;;22.70;40.30;;;;;;4162037;28;20371;-39
2022/06/01 03:00:19;;;;;;;;;;;22.50;40.40;;;;;;4159449;28;20427;-41
2022/06/01 03:02:20;;;;;;;;;;;22.30;40.70;;;;;;4166664;28;20347;-42
2022/06/01 03:04:22;;;;;;;;;;;22.10;41.00;;;;;;4163560;28;21089;-45
2022/06/01 03:06:24;;;;;;;;;;;22.00;41.20;;;;;;4161518;28;20390;-41
2022/06/01 03:08:26;;;;;;;;;;;21.90;41.30;;;;;;4162878;28;19924;-43
2022/06/01 03:10:28;;;;;;;;;;;21.80;41.50;;;;;;4168712;28;20664;-45
2022/06/01 03:12:29;;;;;;;;;;;21.70;41.70;;;;;;4158225;28;20028;-41
2022/06/01 03:14:31;;;;;;;;;;;21.60;41.80;;;;;;4160167;28;19928;-41
2022/06/01 03:16:32;;;;;;;;;;;21.50;41.80;;;;;;4167227;28;19931;-43
2022/06/01 03:18:34;;;;;;;;;;;21.40;41.80;;;;;;4158746;28;19959;-40
2022/06/01 03:20:45;;;;;;;;;;;21.30;41.80;;;;;;4158666;28;20075;-40
2022/06/01 03:22:46;;;;;;;;;;;21.20;41.70;;;;;;4160075;28;19970;-41
2022/06/01 03:24:48;;;;;;;;;;;21.20;41.90;;;;;;4168630;28;20336;-41
2022/06/01 03:26:49;;;;;;;;;;;21.10;41.90;;;;;;4160545;28;20562;-44
2022/06/01 03:28:51;;;;;;;;;;;21.10;42.10;;;;;;4157748;28;19928;-40
2022/06/01 03:30:53;;;;;;;;;;;21.40;42.20;;;;;;4151809;28;20275;-42
2022/06/01 03:32:54;;;;;;;;;;;21.90;41.60;;;;;;4157996;28;20224;-42
2022/06/01 03:34:56;;;;;;;;;;;22.40;40.90;;;;;;4159648;28;19935;-41
2022/06/01 03:36:57;;;;;;;;;;;23.00;40.90;;;;;;4165499;28;19923;-42
2022/06/01 03:38:59;;;;;;;;;;;23.40;39.60;;;;;;4157498;28;21757;-44
2022/06/01 03:41:00;;;;;;;;;;;23.80;39.10;;;;;;4157946;28;20407;-40
2022/06/01 03:43:02;;;;;;;;;;;24.20;38.50;;;;;;4166475;28;19931;-42
2022/06/01 03:47:24;;;;;;;;;;;24.80;37.90;;;;;;4165443;28;20387;-47
2022/06/01 03:49:25;;;;;;;;;;;24.70;38.10;;;;;;4157536;28;20845;-44
2022/06/01 03:51:27;;;;;;;;;;;24.40;38.10;;;;;;4157602;28;19931;-41
2022/06/01 03:53:29;;;;;;;;;;;24.20;38.20;;;;;;4166422;28;20027;-45
2022/06/01 03:55:31;;;;;;;;;;;24.20;38.40;;;;;;4159589;28;19971;-39
2022/06/01 03:57:32;;;;;;;;;;;24.40;38.20;;;;;;4177437;27;20448;-42
2022/06/01 03:59:35;;;;;;;;;;;24.50;38.20;;;;;;4164112;28;20012;-41
2022/06/01 04:01:37;;;;;;;;;;;24.30;38.20;;;;;;4160924;28;20068;-46
2022/06/01 04:03:38;;;;;;;;;;;24.20;38.30;;;;;;4157434;28;19947;-40
2022/06/01 04:05:40;;;;;;;;;;;24.40;38.30;;;;;;4163289;28;20389;-39
2022/06/01 04:07:42;;;;;;;;;;;24.40;38.00;;;;;;4161314;28;19928;-43
2022/06/01 04:09:43;;;;;;;;;;;24.30;37.80;;;;;;4158236;28;20027;-42
2022/06/01 04:11:45;;;;;;;;;;;24.20;38.00;;;;;;4158759;28;19955;-40
2022/06/01 04:13:46;;;;;;;;;;;24.40;38.10;;;;;;4162887;28;21789;-43
2022/06/01 04:15:48;;;;;;;;;;;24.60;38.00;;;;;;4157074;28;19947;-40
2022/06/01 04:17:49;;;;;;;;;;;24.60;37.30;;;;;;4157277;28;19923;-42
2022/06/01 04:19:51;;;;;;;;;;;24.30;37.40;;;;;;4159188;28;20020;-42
2022/06/01 04:21:53;;;;;;;;;;;24.40;37.80;;;;;;4157669;28;19924;-43
2022/06/01 04:23:58;;;;;;;;;;;24.70;37.70;;;;;;4158670;28;20282;-43
2022/06/01 04:26:00;;;;;;;;;;;24.80;37.80;;;;;;4162019;28;19971;-43
2022/06/01 04:28:01;;;;;;;;;;;24.60;38.00;;;;;;4156070;28;20172;-47
2022/06/01 04:30:03;;;;;;;;;;;24.60;38.20;;;;;;4156813;28;20506;-44
2022/06/01 04:32:06;;;;;;;;;;;24.60;38.30;;;;;;4146420;28;19928;-40
2022/06/01 04:34:07;;;;;;;;;;;24.50;38.30;;;;;;4159863;28;21952;-40
2022/06/01 04:36:09;;;;;;;;;;;24.40;38.70;;;;;;4155730;28;19924;-45
2022/06/01 04:38:13;;;;;;;;;;;24.50;38.70;;;;;;4156299;28;20023;-41
2022/06/01 04:40:16;;;;;;;;;;;24.60;38.80;;;;;;4162951;28;21138;-43
2022/06/01 04:42:17;;;;;;;;;;;24.50;38.90;;;;;;4157868;28;19926;-41
2022/06/01 04:44:19;;;;;;;;;;;24.30;38.80;;;;;;4157175;28;20031;-40
2022/06/01 04:46:21;;;;;;;;;;;24.40;38.80;;;;;;4148063;28;19965;-42
2022/06/01 04:48:23;;;;;;;;;;;24.60;38.60;;;;;;4157449;28;20781;-39
2022/06/01 04:50:24;;;;;;;;;;;24.60;38.60;;;;;;4158363;28;19924;-46
2022/06/01 04:52:25;;;;;;;;;;;24.50;38.60;;;;;;4162572;28;19963;-39
2022/06/01 04:54:27;;;;;;;;;;;24.40;38.80;;;;;;4153249;28;22072;-40
2022/06/01 04:56:29;;;;;;;;;;;24.50;38.90;;;;;;4151015;28;19934;-43
2022/06/01 04:58:30;;;;;;;;;;;24.70;38.70;;;;;;4161973;28;19931;-40
2022/06/01 05:00:33;;;;;;;;;;;24.70;38.70;;;;;;4163695;28;20941;-40
2022/06/01 05:02:34;;;;;;;;;;;24.60;38.60;;;;;;4161541;28;19924;-41
2022/06/01 05:04:36;;;;;;;;;;;24.50;38.20;;;;;;4163961;28;20253;-41
2022/06/01 05:06:37;;;;;;;;;;;24.60;38.20;;;;;;4164819;28;21754;-41
2022/06/01 05:08:39;;;;;;;;;;;24.60;38.00;;;;;;4159479;28;20177;-40
2022/06/01 05:10:41;;;;;;;;;;;24.50;37.90;;;;;;4161449;28;20026;-39
2022/06/01 05:12:43;;;;;;;;;;;24.40;38.20;;;;;;4166302;28;19931;-42
2022/06/01 05:14:45;;;;;;;;;;;24.70;38.10;;;;;;4160550;28;20443;-41
2022/06/01 05:16:46;;;;;;;;;;;24.90;38.10;;;;;;4161251;28;20328;-44
2022/06/01 05:18:48;;;;;;;;;;;24.70;38.10;;;;;;4167484;28;19935;-44
2022/06/01 05:20:49;;;;;;;;;;;24.60;38.20;;;;;;4159247;28;20278;-41
2022/06/01 05:22:51;;;;;;;;;;;24.70;38.30;;;;;;4159353;28;20413;-42
2022/06/01 05:24:52;;;;;;;;;;;24.90;37.90;;;;;;4165299;28;20412;-41
2022/06/01 05:26:53;;;;;;;;;;;25.10;37.80;;;;;;4159327;28;20360;-40
2022/06/01 05:28:55;;;;;;;;;;;25.00;37.80;;;;;;4158783;28;19958;-41
2022/06/01 05:31:00;;;;;;;;;;;24.80;37.80;;;;;;4157730;28;20484;-44
2022/06/01 05:33:02;;;;;;;;;;;24.80;38.10;;;;;;4155293;28;20911;-42
2022/06/01 05:35:04;;;;;;;;;;;25.00;38.00;;;;;;4157497;28;20464;-41
2022/06/01 05:37:06;;;;;;;;;;;25.10;37.90;;;;;;4162221;28;19976;-42
2022/06/01 05:39:07;;;;;;;;;;;24.90;37.90;;;;;;4150823;28;20587;-44
2022/06/01 05:41:09;;;;;;;;;;;24.70;38.30;;;;;;4161440;28;19927;-40
2022/06/01 05:43:12;;;;;;;;;;;24.80;38.40;;;;;;4162792;28;19951;-42
2022/06/01 05:45:14;;;;;;;;;;;24.90;38.20;;;;;;4167793;28;20813;-44
2022/06/01 05:47:15;;;;;;;;;;;24.90;38.30;;;;;;4158378;28;19928;-42
2022/06/01 05:49:17;;;;;;;;;;;24.80;38.30;;;;;;4160175;28;20264;-43
2022/06/01 05:51:18;;;;;;;;;;;24.70;38.40;;;;;;4167292;28;20364;-43
2022/06/01 05:53:23;;;;;;;;;;;24.90;38.30;;;;;;4164921;28;19932;-42
2022/06/01 05:55:25;;;;;;;;;;;24.90;38.40;;;;;;4159325;28;19970;-41
2022/06/01 05:57:26;;;;;;;;;;;24.70;38.40;;;;;;4165845;28;19927;-42
2022/06/01 05:59:28;;;;;;;;;;;24.60;38.50;;;;;;4145084;28;19928;-41
2022/06/01 06:01:29;;;;;;;;;;;24.80;38.30;;;;;;4157411;28;20674;-45
2022/06/01 06:03:31;;;;;;;;;;;25.10;38.10;;;;;;4159103;28;20593;-43
2022/06/01 06:07:57;;;;;;;;;;;24.80;38.20;;;;;;4154973;28;20291;-46
2022/06/01 06:09:59;;;;;;;;;;;24.80;38.30;;;;;;4157917;28;20437;-44
2022/06/01 06:12:00;;;;;;;;;;;25.00;38.20;;;;;;4152781;28;20023;-47
2022/06/01 06:14:02;;;;;;;;;;;25.00;38.20;;;;;;4151750;28;20031;-52
2022/06/01 06:16:04;;;;;;;;;;;24.90;38.30;;;;;;4158530;28;20404;-48
2022/06/01 06:18:12;;;;;;;;;;;24.80;38.40;;;;;;4169065;27;21070;-49
2022/06/01 06:20:17;;;;;;;;;;;24.90;38.20;;;;;;4131974;28;20547;-51
2022/06/01 06:22:18;;;;;;;;;;;25.20;38.00;;;;;;4150355;28;19928;-45
2022/06/01 06:24:21;;;;;;;;;;;25.50;37.70;;;;;;4159701;28;19934;-45
2022/06/01 06:26:23;;;;;;;;;;;25.60;37.70;;;;;;4154574;28;20046;-52
2022/06/01 06:28:24;;;;;;;;;;;25.40;37.90;;;;;;4136649;28;20620;-52
2022/06/01 06:30:26;;;;;;;;;;;25.40;37.80;;;;;;4159225;28;20009;-53
2022/06/01 06:32:31;;;;;;;;;;;25.80;37.40;;;;;;4149762;28;21543;-49
2022/06/01 06:34:36;;;;;;;;;;;26.20;37.00;;;;;;4152888;28;20266;-48
2022/06/01 06:36:40;;;;;;;;;;;26.40;36.40;;;;;;4153601;28;19962;-48
2022/06/01 06:38:42;;;;;;;;;;;26.20;36.30;;;;;;4160813;27;19986;-44
2022/06/01 06:40:43;;;;;;;;;;;26.00;36.60;;;;;;4152313;28;20540;-54
2022/06/01 06:42:45;;;;;;;;;;;26.10;36.90;;;;;;4149641;28;20348;-51
2022/06/01 06:44:47;;;;;;;;;;;25.90;37.10;;;;;;4159406;28;20088;-49
2022/06/01 06:46:49;;;;;;;;;;;25.70;37.40;;;;;;4122333;28;19932;-48
2022/06/01 06:48:51;;;;;;;;;;;25.40;37.80;;;;;;4148623;28;20019;-47
2022/06/01 06:50:52;;;;;;;;;;;25.40;38.00;;;;;;4159494;28;19928;-50
2022/06/01 06:52:54;;;;;;;;;;;25.60;37.80;;;;;;4156592;28;20629;-46
2022/06/01 06:54:56;;;;;;;;;;;25.60;37.80;;;;;;4139250;28;19958;-48
2022/06/01 06:56:58;;;;;;;;;;;25.40;37.90;;;;;;4157337;28;19924;-51
2022/06/01 06:59:03;;;;;;;;;;;25.10;38.40;;;;;;4160814;28;20050;-48
2022/06/01 07:01:05;;;;;;;;;;;25.10;38.40;;;;;;4153204;28;19927;-46
2022/06/01 07:03:06;;;;;;;;;;;25.40;38.20;;;;;;4149459;28;20380;-45
2022/06/01 07:05:08;;;;;;;;;;;25.60;38.10;;;;;;4159562;28;20768;-44
2022/06/01 07:07:10;;;;;;;;;;;25.50;38.30;;;;;;4151823;28;19928;-46
2022/06/01 07:09:11;;;;;;;;;;;25.30;38.40;;;;;;4154253;28;19992;-47
2022/06/01 07:11:14;;;;;;;;;;;25.10;38.60;;;;;;4143566;28;20026;-45
2022/06/01 07:13:15;;;;;;;;;;;25.30;38.50;;;;;;4153405;28;19935;-45
2022/06/01 07:15:17;;;;;;;;;;;25.60;38.20;;;;;;4151962;28;19931;-46
2022/06/01 07:17:19;;;;;;;;;;;25.90;38.00;;;;;;4161435;28;20325;-47
2022/06/01 07:19:21;;;;;;;;;;;25.80;38.20;;;;;;4161810;28;19935;-48
2022/06/01 07:21:26;;;;;;;;;;;25.50;38.20;;;;;;4157463;28;20389;-48
2022/06/01 07:23:27;;;;;;;;;;;25.30;38.50;;;;;;4157080;28;19950;-48
2022/06/01 07:25:29;;;;;;;;;;;25.40;38.50;;;;;;4168432;28;20300;-48
2022/06/01 07:27:30;;;;;;;;;;;25.60;38.50;;;;;;4158502;28;19927;-48
2022/06/01 07:29:32;;;;;;;;;;;25.50;38.70;;;;;;4159626;28;20293;-46
2022/06/01 07:31:34;;;;;;;;;;;25.30;38.60;;;;;;4149846;28;19958;-46
2022/06/01 07:33:36;;;;;;;;;;;25.20;38.70;;;;;;4142496;28;20106;-52
2022/06/01 07:35:37;;;;;;;;;;;25.20;38.60;;;;;;4143358;28;20846;-44
2022/06/01 07:44:38;;;;;;;;;;;24.60;39.90;;;;;;4144998;28;19928;-47
2022/06/01 07:46:40;;;;;;;;;;;24.40;40.00;;;;;;4126569;28;20565;-47
2022/06/01 07:48:41;;;;;;;;;;;24.30;40.30;;;;;;4147611;28;20440;-49
2022/06/01 07:50:51;;;;;;;;;;;24.10;40.70;;;;;;4141893;28;19928;-49
2022/06/01 07:52:52;;;;;;;;;;;24.00;40.90;;;;;;4136477;28;19952;-47
2022/06/01 07:54:54;;;;;;;;;;;24.10;40.80;;;;;;4135601;28;19929;-45
2022/06/01 07:56:55;;;;;;;;;;;24.00;40.90;;;;;;4149438;28;19932;-46
2022/06/01 07:58:57;;;;;;;;;;;24.00;40.80;;;;;;4140169;28;20516;-53
2022/06/01 08:00:59;;;;;;;;;;;23.90;41.10;;;;;;4138979;28;19934;-49
2022/06/01 08:03:00;;;;;;;;;;;23.80;41.20;;;;;;4150297;28;19971;-51
2022/06/01 08:05:02;;;;;;;;;;;23.70;41.50;;;;;;4141825;28;20166;-46
2022/06/01 08:07:04;;;;;;;;;;;23.60;41.50;;;;;;4143349;28;20015;-50
2022/06/01 08:09:06;;;;;;;;;;;23.60;41.60;;;;;;4147369;28;20563;-44
2022/06/01 08:11:07;;;;;;;;;;;23.50;41.40;;;;;;4143756;28;20010;-46
2022/06/01 08:13:10;;;;;;;;;;;23.50;41.60;;;;;;4137990;28;19935;-49
2022/06/01 08:15:12;;;;;;;;;;;23.40;41.80;;;;;;4141923;28;20015;-44
2022/06/01 08:17:14;;;;;;;;;;;23.30;41.80;;;;;;4144782;28;20456;-44
2022/06/01 08:19:16;;;;;;;;;;;23.30;42.10;;;;;;4136657;28;20504;-46
2022/06/01 08:21:17;;;;;;;;;;;23.30;41.90;;;;;;4139549;28;20018;-46
2022/06/01 08:23:21;;;;;;;;;;;23.20;42.00;;;;;;4147217;28;20231;-47
2022/06/01 08:25:23;;;;;;;;;;;23.20;42.10;;;;;;4141469;28;20639;-45
2022/06/01 08:27:24;;;;;;;;;;;23.10;42.40;;;;;;4140743;28;20108;-45
2022/06/01 08:29:26;;;;;;;;;;;23.00;42.30;;;;;;4178385;27;20324;-47
2022/06/01 08:31:29;;;;;;;;;;;23.10;42.30;;;;;;4158526;28;20034;-42
2022/06/01 08:33:31;;;;;;;;;;;23.10;41.90;;;;;;4156983;28;19967;-43
2022/06/01 08:35:37;;;;;;;;;;;23.00;42.00;;;;;;4162707;28;20205;-43
2022/06/01 08:37:38;;;;;;;;;;;23.00;42.30;;;;;;4163601;28;20454;-45
2022/06/01 08:39:40;;;;;;;;;;;22.90;42.50;;;;;;4156846;28;19928;-44
2022/06/01 08:41:41;;;;;;;;;;;22.80;42.60;;;;;;4156885;28;19923;-46
2022/06/01 08:43:54;;;;;;;;;;;22.80;42.70;;;;;;4166262;28;20337;-46
2022/06/01 08:45:59;;;;;;;;;;;22.90;42.50;;;;;;4150635;28;20023;-47
2022/06/01 08:48:01;;;;;;;;;;;22.90;42.30;;;;;;4159433;28;19951;-47
2022/06/01 08:50:05;;;;;;;;;;;22.80;43.00;;;;;;4156007;28;20462;-46
2022/06/01 08:52:07;;;;;;;;;;;22.70;42.70;;;;;;4160686;28;20274;-44
2022/06/01 08:54:09;;;;;;;;;;;22.60;42.90;;;;;;4162664;28;19935;-46
2022/06/01 08:56:13;;;;;;;;;;;22.60;43.00;;;;;;4158378;28;19932;-47
2022/06/01 08:58:16;;;;;;;;;;;22.70;42.90;;;;;;4139577;28;20410;-47
2022/06/01 09:00:19;;;;;;;;;;;22.70;42.60;;;;;;4164092;27;19950;-44
2022/06/01 09:02:21;;;;;;;;;;;22.60;42.70;;;;;;4163324;28;19951;-45
2022/06/01 09:04:34;;;;;;;;;;;22.60;43.00;;;;;;4141727;28;19932;-47
2022/06/01 09:06:39;;;;;;;;;;;22.50;43.30;;;;;;4155301;28;19932;-51
2022/06/01 09:08:40;;;;;;;;;;;22.40;43.30;;;;;;4158614;28;19981;-46
2022/06/01 09:10:48;;;;;;;;;;;22.40;43.20;;;;;;4166926;28;20353;-51
2022/06/01 09:12:54;;;;;;;;;;;22.40;43.10;;;;;;4162424;28;20858;-50
2022/06/01 09:14:57;;;;;;;;;;;22.30;43.30;;;;;;4154589;28;19935;-45
2022/06/01 09:16:59;;;;;;;;;;;22.30;43.40;;;;;;4159129;28;19928;-47
2022/06/01 09:19:01;;;;;;;;;;;22.20;43.50;;;;;;4163956;28;20298;-45
2022/06/01 09:23:22;;;;;;;;;;;22.40;43.10;;;;;;4162277;28;19928;-45
2022/06/01 09:25:28;;;;;;;;;;;22.40;43.10;;;;;;4158359;28;20722;-48
2022/06/01 09:27:38;;;;;;;;;;;22.30;43.30;;;;;;4157988;28;19924;-44
2022/06/01 09:29:47;;;;;;;;;;;22.30;43.50;;;;;;4139593;28;19956;-49
2022/06/01 09:31:49;;;;;;;;;;;22.20;43.70;;;;;;4140015;28;19928;-46
2022/06/01 09:33:51;;;;;;;;;;;22.30;43.70;;;;;;4132383;28;20374;-49
2022/06/01 09:36:05;;;;;;;;;;;22.30;43.50;;;;;;4141558;28;20061;-45
2022/06/01 09:38:11;;;;;;;;;;;22.30;43.50;;;;;;4142222;28;20344;-50
2022/06/01 09:40:22;;;;;;;;;;;22.20;43.60;;;;;;4139712;28;20168;-47
2022/06/01 09:42:26;;;;;;;;;;;22.10;43.80;;;;;;4141946;28;19932;-47
2022/06/01 09:44:34;;;;;;;;;;;22.10;43.90;;;;;;4122037;28;19928;-43
2022/06/01 09:46:57;;;;;;;;;;;22.20;43.70;;;;;;4144793;28;19963;-45
2022/06/01 09:48:58;;;;;;;;;;;22.20;43.50;;;;;;4141127;28;20261;-47
2022/06/01 09:51:02;;;;;;;;;;;22.20;43.70;;;;;;4142447;28;19928;-46
2022/06/01 09:53:15;;;;;;;;;;;22.10;43.90;;;;;;4149539;28;20393;-49
2022/06/01 09:55:19;;;;;;;;;;;22.00;44.00;;;;;;4149475;28;20321;-48
2022/06/01 09:57:37;;;;;;;;;;;22.00;44.10;;;;;;4138372;28;21224;-44
2022/06/01 10:06:56;;;;;;;;;;;21.90;44.40;;;;;;4152428;28;20449;-45
2022/06/01 10:09:14;;;;;;;;;;;22.00;44.10;;;;;;4146540;28;21218;-45
2022/06/01 10:11:28;;;;;;;;;;;22.00;43.80;;;;;;4152153;28;20397;-48
2022/06/01 10:13:33;;;;;;;;;;;22.00;43.90;;;;;;4149705;28;20333;-46
2022/06/01 10:15:42;;;;;;;;;;;21.90;44.10;;;;;;4147291;28;20090;-48
2022/06/01 10:17:46;;;;;;;;;;;21.90;44.20;;;;;;4140936;28;20362;-47
2022/06/01 10:19:54;;;;;;;;;;;21.90;44.30;;;;;;4145468;28;19928;-47
2022/06/01 10:21:59;;;;;;;;;;;22.00;43.90;;;;;;4143780;28;20346;-43
2022/06/01 10:24:11;;;;;;;;;;;22.00;43.90;;;;;;4152286;28;20507;-45
2022/06/01 10:26:25;;;;;;;;;;;21.90;44.00;;;;;;4150151;28;19928;-43
2022/06/01 10:28:30;;;;;;;;;;;21.80;44.40;;;;;;4153852;28;19932;-43
2022/06/01 10:30:35;;;;;;;;;;;21.80;44.30;;;;;;4167712;28;20019;-46
2022/06/01 10:32:43;;;;;;;;;;;21.80;44.10;;;;;;4163016;28;19928;-50
2022/06/01 10:34:45;;;;;;;;;;;21.80;44.20;;;;;;4161423;28;19946;-49
2022/06/01 10:36:58;;;;;;;;;;;21.80;44.30;;;;;;4158710;28;19927;-44
2022/06/01 10:39:03;;;;;;;;;;;21.70;42.90;;;;;;4144719;28;20652;-44
2022/06/01 10:41:05;;;;;;;;;;;21.50;42.10;;;;;;4166318;28;20416;-47
2022/06/01 10:43:18;;;;;;;;;;;21.70;42.30;;;;;;4161055;28;20965;-46
2022/06/01 10:45:20;;;;;;;;;;;21.70;43.20;;;;;;4166375;28;21409;-44
2022/06/01 10:47:26;;;;;;;;;;;21.70;43.70;;;;;;4159741;28;20653;-46
2022/06/01 10:50:02;;;;;;;;;;;21.60;43.90;;;;;;4159570;28;20491;-46
2022/06/01 10:52:07;;;;;;;;;;;21.50;44.20;;;;;;4142365;28;20005;-46
2022/06/01 10:54:19;;;;;;;;;;;21.70;44.80;;;;;;4154270;28;21313;-52
2022/06/01 10:56:22;;;;;;;;;;;21.80;44.50;;;;;;4165661;28;19928;-43
2022/06/01 10:58:25;;;;;;;;;;;21.80;44.70;;;;;;4159179;28;20427;-46
2022/06/01 11:00:29;;;;;;;;;;;21.80;45.00;;;;;;4159755;28;19955;-51
2022/06/01 11:02:49;;;;;;;;;;;21.60;45.20;;;;;;4167131;28;20270;-51
2022/06/01 11:04:50;;;;;;;;;;;21.60;45.40;;;;;;4163586;28;19956;-48
2022/06/01 11:07:10;;;;;;;;;;;21.80;45.00;;;;;;4168214;28;19977;-49
2022/06/01 11:09:34;;;;;;;;;;;21.90;44.90;;;;;;4163224;28;20385;-47
2022/06/01 11:11:41;;;;;;;;;;;21.80;45.00;;;;;;4161465;28;20011;-47
2022/06/01 11:13:50;;;;;;;;;;;21.70;45.00;;;;;;4162137;28;19934;-51
2022/06/01 11:15:52;;;;;;;;;;;21.60;45.30;;;;;;4130677;28;19972;-52
2022/06/01 11:18:01;;;;;;;;;;;21.70;45.70;;;;;;4165891;28;20030;-46
2022/06/01 11:20:03;;;;;;;;;;;21.90;45.20;;;;;;4165369;28;19932;-44
2022/06/01 11:22:22;;;;;;;;;;;21.90;45.10;;;;;;4157812;28;20261;-45
2022/06/01 11:24:45;;;;;;;;;;;21.80;45.20;;;;;;4161420;28;20192;-48
2022/06/01 11:26:47;;;;;;;;;;;21.70;45.50;;;;;;4165112;28;19936;-49
2022/06/01 11:29:10;;;;;;;;;;;21.60;45.80;;;;;;4161851;28;20522;-48
2022/06/01 11:31:15;;;;;;;;;;;21.70;46.10;;;;;;4163408;28;20048;-48
2022/06/01 11:33:26;;;;;;;;;;;21.90;45.50;;;;;;4163874;28;20611;-49
2022/06/01 11:35:30;;;;;;;;;;;21.90;45.30;;;;;;4164904;28;20587;-43
2022/06/01 11:37:35;;;;;;;;;;;21.80;45.40;;;;;;4159305;28;19954;-45
2022/06/01 11:39:44;;;;;;;;;;;21.70;45.30;;;;;;4139947;28;20647;-48
2022/06/01 11:41:53;;;;;;;;;;;21.60;44.20;;;;;;4157287;28;19935;-45
2022/06/01 11:43:56;;;;;;;;;;;21.60;44.10;;;;;;4160835;28;20163;-44
2022/06/01 11:46:03;;;;;;;;;;;21.80;43.90;;;;;;4165772;28;20265;-44
2022/06/01 11:48:10;;;;;;;;;;;21.70;43.80;;;;;;4159785;28;20476;-44
2022/06/01 11:50:17;;;;;;;;;;;21.60;44.00;;;;;;4160700;28;19932;-45
2022/06/01 11:52:24;;;;;;;;;;;21.50;44.10;;;;;;4154833;28;20323;-45
2022/06/01 11:54:35;;;;;;;;;;;21.40;44.70;;;;;;4153865;28;19928;-48
2022/06/01 11:56:37;;;;;;;;;;;21.40;44.40;;;;;;4142397;28;20089;-44
2022/06/01 11:58:39;;;;;;;;;;;21.40;44.40;;;;;;4164825;28;19950;-43
2022/06/01 12:00:41;;;;;;;;;;;21.30;44.40;;;;;;4155234;28;19931;-43
2022/06/01 12:02:48;;;;;;;;;;;21.20;44.70;;;;;;4155386;28;20533;-52
2022/06/01 12:04:54;;;;;;;;;;;21.20;45.00;;;;;;4161905;28;19955;-47
2022/06/01 12:07:08;;;;;;;;;;;21.10;45.20;;;;;;4165398;28;20075;-46
2022/06/01 12:09:16;;;;;;;;;;;21.00;45.30;;;;;;4166888;28;19935;-51
2022/06/01 12:11:36;;;;;;;;;;;21.00;45.20;;;;;;4163508;28;20039;-53
2022/06/01 12:13:38;;;;;;;;;;;20.90;45.60;;;;;;4164690;28;19947;-46
2022/06/01 12:15:42;;;;;;;;;;;20.80;45.80;;;;;;4164067;28;20397;-52
2022/06/01 12:18:02;;;;;;;;;;;20.70;45.40;;;;;;4156121;28;19932;-55
2022/06/01 12:20:12;;;;;;;;;;;20.60;45.60;;;;;;4163748;28;19929;-48
2022/06/01 12:29:34;;;;;;;;;;;20.40;46.20;;;;;;4182474;28;19993;-46
2022/06/01 12:31:58;;;;;;;;;;;20.30;46.20;;;;;;4161270;28;20809;-54
2022/06/01 12:34:14;;;;;;;;;;;20.30;46.30;;;;;;4159911;28;19935;-47
2022/06/01 12:36:17;;;;;;;;;;;20.30;45.80;;;;;;4159155;28;20431;-48
2022/06/01 12:38:38;;;;;;;;;;;20.20;45.30;;;;;;4165755;28;19928;-45